Airfield :
LOGIN :

Register | Disclaimer

   EN    FR    IT 

 










Legend :    VFR   Marginal VFR   IFR   Intensive IFR   Very Intensive IFR
Visi :
Ceiling :
>= 8 km
>= 3000ft
5 to 8 km
1000 to 3000 ft
1500m to 5 km
500 to 1000 ft
800 to 1500m
200 to 500 ft
< 800m
< 200 ft
Symbols :   Thunderstorms  Fog  Heavy snow  Heavy precipitations  Wind > 20 kt
SIGMETs :     Misc.  Thunderstorms  Icing  Turbulence  Mountain Waves  Volcanic Ashes






- Airport Elevation : 39 ft
- IATA code : SUF


LICA - Lamezia Terme

CURRENT METAR :
  • 062220Z AUTO 06004KT 9999 FEW070/// 19/17 Q1014

EXPIRED METARs :
  • 062150Z AUTO 07004KT 9999 NCD 19/17 Q1014
  • 062120Z AUTO 07003KT 040V100 9999 NCD 20/18 Q1014
  • 062050Z AUTO 09005KT 060V140 9999 NCD 20/18 Q1013
  • 062020Z AUTO 07004KT 9999 NCD 20/18 Q1013
  • 061950Z AUTO 08004KT 9999 NCD 21/18 Q1013
  • 061920Z AUTO 07003KT 9999 NCD 22/18 Q1013

TAF TAF LICA
Valid from the 06 at 18:00 until the 07 at 18:00 UTC


061700Z 0618/0718 VRB05KT 9999 FEW040
BECMG 0708/0710 28010KT
TEMPO 0709/0715 SHRA
BECMG 0716/0718 VRB05KT



MET'MAP, your aeronautical weather chart ! - Copyright ORBIFLY December 2007 - Disclaimer

ORBIFLY MET'MAP TEAM :

Programming & Development : Alexandra Zaïnal
Concept & original design : Baudouin d'Aumeries
Assistance for programming : Marc-Olivier Méhu
Technical & hardware support : Manuel Goepfert

Contact : metmap@orbifly.com




SOURCES & CREDITS :

   NOAA